createdAt,value
2023-05-12T00:02:00.293Z,99.90
2023-05-12T00:04:28.123Z,99.90
2023-05-12T00:06:56.531Z,99.90
2023-05-12T00:09:24.343Z,99.90
2023-05-12T00:11:52.510Z,99.90
2023-05-12T00:14:20.318Z,99.90
2023-05-12T00:16:51.902Z,99.90
2023-05-12T00:19:20.421Z,99.90
2023-05-12T00:21:48.203Z,99.90
2023-05-12T00:24:16.699Z,99.90
2023-05-12T00:26:44.231Z,99.90
2023-05-12T00:29:12.327Z,99.90
2023-05-12T00:31:40.069Z,99.90
2023-05-12T00:34:07.558Z,99.90
2023-05-12T00:36:35.238Z,99.90
2023-05-12T00:39:03.660Z,99.90
2023-05-12T00:41:31.180Z,99.90
2023-05-12T00:43:58.856Z,99.90
2023-05-12T00:46:27.527Z,99.90
2023-05-12T00:48:55.411Z,99.90
2023-05-12T00:51:24.384Z,99.90
2023-05-12T00:53:53.528Z,99.90
2023-05-12T00:56:21.972Z,99.90
2023-05-12T00:58:49.759Z,99.90
2023-05-12T01:01:18.431Z,99.90
2023-05-12T01:03:56.304Z,99.90
2023-05-12T01:06:33.008Z,99.90
2023-05-12T01:09:01.315Z,99.90
2023-05-12T01:11:29.100Z,99.90
2023-05-12T01:13:56.728Z,99.90
2023-05-12T01:16:36.062Z,99.90
2023-05-12T01:19:07.485Z,99.90
2023-05-12T01:21:36.988Z,99.90
2023-05-12T01:24:08.633Z,99.90
2023-05-12T01:26:37.835Z,99.90
2023-05-12T01:29:06.151Z,99.90
2023-05-12T01:31:34.587Z,99.90
2023-05-12T01:34:02.531Z,99.90
2023-05-12T01:36:31.589Z,99.90
2023-05-12T01:38:59.415Z,99.90
2023-05-12T01:41:27.335Z,99.90
2023-05-12T01:43:55.168Z,99.90
2023-05-12T01:46:22.911Z,99.90
2023-05-12T01:48:51.041Z,99.90
2023-05-12T01:51:19.013Z,99.90
2023-05-12T01:53:46.764Z,99.90
2023-05-12T01:56:14.750Z,99.90
2023-05-12T01:58:42.423Z,99.90
2023-05-12T02:01:10.430Z,99.90
2023-05-12T02:03:38.137Z,99.90
2023-05-12T02:06:11.554Z,99.90
2023-05-12T02:08:39.761Z,99.90
2023-05-12T02:11:09.766Z,99.90
2023-05-12T02:13:38.256Z,99.90
2023-05-12T02:16:06.625Z,99.90
2023-05-12T02:18:34.474Z,99.90
2023-05-12T02:21:02.359Z,99.90
2023-05-12T02:23:30.358Z,99.90
2023-05-12T02:25:57.831Z,99.90
2023-05-12T02:28:25.364Z,99.90
2023-05-12T02:30:54.369Z,99.90
2023-05-12T02:33:23.163Z,99.90
2023-05-12T02:35:51.150Z,99.90
2023-05-12T02:38:19.967Z,99.90
2023-05-12T02:40:47.936Z,99.90
2023-05-12T02:43:16.371Z,99.90
2023-05-12T02:45:44.321Z,99.90
2023-05-12T02:48:12.105Z,99.90
2023-05-12T02:50:39.772Z,99.90
2023-05-12T02:53:07.476Z,99.90
2023-05-12T02:55:35.248Z,99.90
2023-05-12T02:58:02.802Z,99.90
2023-05-12T03:00:30.321Z,99.90
2023-05-12T03:02:58.364Z,99.90
2023-05-12T03:05:26.016Z,99.90
2023-05-12T03:07:53.839Z,99.90
2023-05-12T03:10:21.738Z,99.90
2023-05-12T03:12:49.300Z,99.90
2023-05-12T03:15:16.910Z,99.90
2023-05-12T03:17:44.702Z,99.90
2023-05-12T03:20:12.557Z,99.90
2023-05-12T03:22:40.006Z,99.90
2023-05-12T03:25:10.323Z,99.90
2023-05-12T03:27:38.204Z,99.90
2023-05-12T03:30:06.982Z,99.90
2023-05-12T03:32:39.210Z,99.90
2023-05-12T03:35:09.199Z,99.90
2023-05-12T03:37:37.444Z,99.90
2023-05-12T03:40:06.387Z,99.90
2023-05-12T03:42:33.882Z,99.90
2023-05-12T03:45:01.373Z,99.90
2023-05-12T03:47:29.389Z,99.90
2023-05-12T03:49:58.386Z,99.90
2023-05-12T03:52:26.161Z,99.90
2023-05-12T03:54:53.832Z,99.90
2023-05-12T03:57:21.565Z,99.90
2023-05-12T03:59:49.210Z,99.90
2023-05-12T04:02:17.076Z,99.90
2023-05-12T04:04:44.764Z,99.90
2023-05-12T04:07:12.358Z,99.90
2023-05-12T04:09:39.971Z,99.90
2023-05-12T04:12:07.934Z,99.90
2023-05-12T04:14:42.922Z,99.90
2023-05-12T04:17:11.169Z,99.90
2023-05-12T04:19:38.688Z,99.90
2023-05-12T04:22:06.455Z,99.90
2023-05-12T04:24:34.139Z,99.90
2023-05-12T04:27:01.783Z,99.90
2023-05-12T04:29:29.413Z,99.90
2023-05-12T04:31:57.273Z,99.90
2023-05-12T04:34:25.088Z,99.90
2023-05-12T04:36:53.123Z,99.90
2023-05-12T04:39:21.356Z,99.90
2023-05-12T04:41:49.820Z,99.90
2023-05-12T04:44:17.580Z,99.90
2023-05-12T04:46:45.841Z,99.90
2023-05-12T04:49:13.471Z,99.90
2023-05-12T04:51:42.936Z,99.90
2023-05-12T04:54:11.442Z,99.90
2023-05-12T04:56:39.526Z,99.90
2023-05-12T04:59:08.236Z,99.90
2023-05-12T05:01:35.844Z,99.90
2023-05-12T05:04:03.336Z,99.90
2023-05-12T05:06:31.653Z,99.90
2023-05-12T05:09:00.413Z,99.90
2023-05-12T05:11:28.111Z,99.90
2023-05-12T05:13:55.641Z,99.90
2023-05-12T05:16:24.739Z,99.90
2023-05-12T05:18:53.039Z,99.90
2023-05-12T05:21:21.004Z,99.90
2023-05-12T05:23:48.387Z,99.90
2023-05-12T05:26:16.447Z,99.90
2023-05-12T05:28:44.116Z,99.90
2023-05-12T05:31:17.006Z,99.90
2023-05-12T05:33:45.142Z,99.90
2023-05-12T05:36:13.828Z,99.90
2023-05-12T05:38:41.580Z,99.90
2023-05-12T05:41:09.700Z,99.90
2023-05-12T05:43:37.532Z,99.90
2023-05-12T05:46:05.215Z,99.90
2023-05-12T05:48:32.891Z,99.90
2023-05-12T05:51:00.855Z,99.90
2023-05-12T05:53:29.150Z,99.90
2023-05-12T05:55:56.624Z,99.90
2023-05-12T05:58:24.451Z,99.90
2023-05-12T06:00:52.739Z,99.90
2023-05-12T06:03:20.271Z,99.90
2023-05-12T06:05:48.748Z,99.90
2023-05-12T06:08:16.826Z,99.90
2023-05-12T06:10:44.213Z,99.90
2023-05-12T06:13:12.005Z,99.90
2023-05-12T06:15:39.485Z,99.90
2023-05-12T06:18:08.187Z,99.90
2023-05-12T06:20:35.660Z,99.90
2023-05-12T06:23:03.678Z,99.90
2023-05-12T06:25:33.286Z,99.90
2023-05-12T06:28:01.695Z,99.90
2023-05-12T06:30:29.496Z,99.90
2023-05-12T06:32:57.170Z,99.90
2023-05-12T06:35:24.602Z,99.90
2023-05-12T06:37:52.447Z,99.90
2023-05-12T06:40:19.912Z,99.90
2023-05-12T06:42:47.627Z,99.90
2023-05-12T06:45:20.908Z,99.90
2023-05-12T06:47:48.889Z,99.90
2023-05-12T06:50:19.166Z,99.90
2023-05-12T06:52:51.726Z,99.90
2023-05-12T06:55:21.114Z,99.90
2023-05-12T06:57:51.514Z,99.90
2023-05-12T07:00:19.209Z,99.90
2023-05-12T07:02:46.793Z,99.90
2023-05-12T07:05:14.428Z,99.90
2023-05-12T07:07:42.043Z,99.90
2023-05-12T07:10:09.645Z,99.90
2023-05-12T07:12:38.242Z,99.90
2023-05-12T07:15:06.598Z,99.90
2023-05-12T07:17:34.691Z,99.90
2023-05-12T07:20:02.420Z,99.90
2023-05-12T07:22:29.923Z,99.90
2023-05-12T07:24:57.385Z,99.90
2023-05-12T07:27:24.871Z,99.90
2023-05-12T07:29:52.346Z,99.90
2023-05-12T07:32:19.795Z,99.90
2023-05-12T07:34:47.140Z,99.90
2023-05-12T07:37:14.661Z,99.90
2023-05-12T07:39:42.062Z,99.90
2023-05-12T07:42:09.599Z,99.90
2023-05-12T07:44:37.010Z,99.90
2023-05-12T07:47:05.523Z,99.90
2023-05-12T07:49:33.446Z,99.90
2023-05-12T07:52:01.470Z,99.90
2023-05-12T07:54:28.858Z,99.90
2023-05-12T07:56:56.278Z,99.90
2023-05-12T07:59:24.424Z,99.90
2023-05-12T08:01:51.923Z,99.90
2023-05-12T08:04:19.356Z,99.90
2023-05-12T08:06:46.781Z,99.90
2023-05-12T08:09:14.208Z,99.90
2023-05-12T08:11:44.044Z,99.90
2023-05-12T08:14:13.875Z,99.90
2023-05-12T08:16:42.622Z,99.90
2023-05-12T08:19:10.209Z,99.90
2023-05-12T08:21:37.692Z,99.90
2023-05-12T08:24:05.144Z,99.90
2023-05-12T08:26:32.523Z,99.90
2023-05-12T08:29:00.153Z,99.90
2023-05-12T08:31:27.908Z,99.90
2023-05-12T08:34:08.912Z,99.90
2023-05-12T08:36:39.143Z,99.90
2023-05-12T08:39:07.798Z,99.90
2023-05-12T08:42:21.330Z,99.90
2023-05-12T08:44:49.233Z,99.90
2023-05-12T08:47:18.917Z,99.90
2023-05-12T08:49:54.614Z,99.90
2023-05-12T08:52:22.666Z,99.90
2023-05-12T08:54:55.864Z,99.90
2023-05-12T08:57:24.897Z,99.90
2023-05-12T08:59:57.442Z,99.80
2023-05-12T09:02:25.952Z,99.50
2023-05-12T09:04:55.165Z,99.20
2023-05-12T09:07:26.685Z,99.10
2023-05-12T09:09:59.843Z,98.80
2023-05-12T09:12:31.850Z,98.40
2023-05-12T09:15:05.135Z,98.20
2023-05-12T09:17:34.714Z,97.70
2023-05-12T09:20:04.260Z,97.50
2023-05-12T09:22:35.038Z,97.10
2023-05-12T09:25:21.801Z,97.00
2023-05-12T09:27:56.627Z,97.20
2023-05-12T09:30:32.275Z,96.70
2023-05-12T09:33:11.031Z,96.50
2023-05-12T09:35:43.460Z,96.50
2023-05-12T09:38:14.391Z,96.50
2023-05-12T09:40:43.262Z,96.40
2023-05-12T09:43:13.617Z,96.40
2023-05-12T09:45:44.141Z,96.50
2023-05-12T09:48:14.183Z,96.40
2023-05-12T09:50:50.401Z,96.50
2023-05-12T09:53:19.675Z,96.60
2023-05-12T09:55:47.990Z,96.80
2023-05-12T09:58:18.898Z,97.30
2023-05-12T10:03:18.745Z,97.70
2023-05-12T10:05:54.331Z,97.90
2023-05-12T10:08:45.235Z,98.10
2023-05-12T10:11:12.968Z,98.40
2023-05-12T10:13:40.840Z,98.50
2023-05-12T10:16:09.651Z,98.60
2023-05-12T10:18:38.321Z,98.60
2023-05-12T10:21:06.958Z,98.60
2023-05-12T10:23:38.060Z,98.60
2023-05-12T10:26:07.405Z,98.60
2023-05-12T10:28:35.080Z,98.70
2023-05-12T10:31:05.911Z,98.90
2023-05-12T10:33:33.938Z,99.00
2023-05-12T10:36:01.582Z,99.20
2023-05-12T10:38:36.693Z,99.40
2023-05-12T10:41:06.645Z,99.70
2023-05-12T10:43:46.782Z,99.90
2023-05-12T10:46:21.003Z,99.80
2023-05-12T10:49:03.417Z,99.90
2023-05-12T10:51:46.067Z,99.90
2023-05-12T10:54:24.162Z,99.90
2023-05-12T10:56:52.715Z,99.90
2023-05-12T10:59:24.315Z,99.90
2023-05-12T11:02:16.862Z,99.90
2023-05-12T11:04:50.321Z,99.90
2023-05-12T11:07:26.649Z,99.90
2023-05-12T11:09:58.305Z,99.90
2023-05-12T11:12:29.139Z,99.90
2023-05-12T11:14:58.895Z,99.90
2023-05-12T11:17:26.502Z,99.90
2023-05-12T11:19:55.662Z,99.90
2023-05-12T11:22:24.161Z,99.90
2023-05-12T11:24:53.488Z,99.90
2023-05-12T11:27:23.349Z,99.90
2023-05-12T11:30:02.627Z,99.90
2023-05-12T11:32:32.771Z,99.90
2023-05-12T11:35:18.252Z,99.90
2023-05-12T11:37:46.439Z,99.90
2023-05-12T11:40:14.831Z,99.90
2023-05-12T11:42:46.134Z,99.90
2023-05-12T11:45:25.037Z,99.90
2023-05-12T11:47:53.749Z,99.90
2023-05-12T11:50:25.178Z,99.90
2023-05-12T11:52:53.272Z,99.90
2023-05-12T11:55:23.371Z,99.90
2023-05-12T11:58:04.305Z,99.90
2023-05-12T12:00:33.079Z,99.90
2023-05-12T12:03:12.136Z,99.90
2023-05-12T12:05:57.177Z,99.90
2023-05-12T12:08:24.629Z,99.90
2023-05-12T12:10:52.269Z,99.90
2023-05-12T12:13:21.755Z,99.90
2023-05-12T12:15:50.346Z,99.90
2023-05-12T12:18:19.150Z,99.90
2023-05-12T12:20:47.134Z,99.90
2023-05-12T12:23:14.731Z,99.90
2023-05-12T12:25:42.062Z,99.90
2023-05-12T12:28:09.411Z,99.90
2023-05-12T12:30:37.451Z,99.90
2023-05-12T12:33:05.226Z,99.90
2023-05-12T12:35:32.773Z,99.90
2023-05-12T12:38:00.459Z,99.90
2023-05-12T12:40:28.198Z,99.90
2023-05-12T12:42:56.028Z,99.90
2023-05-12T12:45:23.718Z,99.90
2023-05-12T12:47:54.834Z,99.90
2023-05-12T12:50:25.054Z,99.90
2023-05-12T12:52:53.420Z,99.90
2023-05-12T12:55:21.840Z,99.90
2023-05-12T12:57:49.604Z,99.90
2023-05-12T13:00:18.096Z,99.90
2023-05-12T13:02:45.595Z,99.90
2023-05-12T13:05:13.130Z,99.90
2023-05-12T13:07:40.740Z,99.90
2023-05-12T13:10:09.354Z,99.90
2023-05-12T13:12:36.857Z,99.90
2023-05-12T13:15:04.600Z,99.90
2023-05-12T13:17:33.932Z,99.90
2023-05-12T13:20:02.052Z,99.90
2023-05-12T13:22:29.687Z,99.90
2023-05-12T13:24:58.278Z,99.90
2023-05-12T13:27:25.860Z,99.90
2023-05-12T13:29:53.352Z,99.90
2023-05-12T13:32:21.071Z,99.90
2023-05-12T13:34:49.251Z,99.90
2023-05-12T13:37:16.786Z,99.90
2023-05-12T13:39:44.216Z,99.90
2023-05-12T13:42:11.830Z,99.90
2023-05-12T13:44:39.405Z,99.90
2023-05-12T13:47:07.980Z,99.90
2023-05-12T13:49:36.712Z,99.90
2023-05-12T13:52:04.370Z,99.90
2023-05-12T13:54:32.406Z,99.90
2023-05-12T13:57:00.868Z,99.90
2023-05-12T13:59:28.354Z,99.90
2023-05-12T14:01:55.934Z,99.90
2023-05-12T14:04:23.578Z,99.90
2023-05-12T14:06:51.194Z,99.90
2023-05-12T14:09:19.378Z,99.90
2023-05-12T14:11:46.991Z,99.90
2023-05-12T14:14:14.869Z,99.90
2023-05-12T14:16:42.457Z,99.90
2023-05-12T14:19:09.996Z,99.90
2023-05-12T14:21:37.775Z,99.90
2023-05-12T14:24:05.840Z,99.90
2023-05-12T14:26:33.440Z,99.90
2023-05-12T14:29:01.005Z,99.90
2023-05-12T14:31:28.570Z,99.90
2023-05-12T14:33:56.279Z,99.90
2023-05-12T14:36:23.813Z,99.90
2023-05-12T14:38:51.395Z,99.90
2023-05-12T14:41:18.872Z,99.90
2023-05-12T14:43:46.796Z,99.90
2023-05-12T14:46:14.398Z,99.90
2023-05-12T14:48:42.913Z,99.90
2023-05-12T14:51:10.569Z,99.90
2023-05-12T14:53:38.047Z,99.90
2023-05-12T14:56:06.177Z,99.90
2023-05-12T14:58:33.774Z,99.90
2023-05-12T15:01:03.361Z,99.90
2023-05-12T15:03:30.871Z,99.90
2023-05-12T15:06:06.443Z,99.90
2023-05-12T15:08:34.641Z,99.90
2023-05-12T15:11:02.130Z,99.90
2023-05-12T15:13:29.913Z,99.90
2023-05-12T15:15:57.381Z,99.90
2023-05-12T15:18:24.932Z,99.90
2023-05-12T15:20:52.956Z,99.90
2023-05-12T15:23:20.510Z,99.90
2023-05-12T15:25:48.100Z,99.90
2023-05-12T15:28:15.519Z,99.90
2023-05-12T15:30:43.242Z,99.90
2023-05-12T15:33:10.833Z,99.90
2023-05-12T15:35:40.477Z,99.90
2023-05-12T15:38:08.297Z,99.90
2023-05-12T15:40:37.157Z,99.90
2023-05-12T15:43:05.132Z,99.90
2023-05-12T15:45:32.642Z,99.90
2023-05-12T15:48:00.320Z,99.90
2023-05-12T15:50:27.840Z,99.90
2023-05-12T15:52:55.715Z,99.90
2023-05-12T15:55:23.423Z,99.90
2023-05-12T15:57:51.095Z,99.90
2023-05-12T16:00:19.488Z,99.90
2023-05-12T16:02:47.075Z,99.90
2023-05-12T16:05:14.507Z,99.90
2023-05-12T16:07:42.457Z,99.90
2023-05-12T16:10:10.408Z,99.90
2023-05-12T16:12:37.871Z,99.90
2023-05-12T16:15:05.906Z,99.90
2023-05-12T16:17:33.703Z,99.90
2023-05-12T16:20:02.074Z,99.90
2023-05-12T16:22:30.064Z,99.90
2023-05-12T16:24:57.721Z,99.90
2023-05-12T16:27:25.580Z,99.90
2023-05-12T16:29:53.869Z,99.90
2023-05-12T16:32:21.721Z,99.90
2023-05-12T16:34:49.530Z,99.90
2023-05-12T16:37:17.118Z,99.90
2023-05-12T16:39:44.741Z,99.90
2023-05-12T16:42:12.233Z,99.90
2023-05-12T16:44:39.958Z,99.90
2023-05-12T16:47:08.159Z,99.90
2023-05-12T16:49:35.707Z,99.90
2023-05-12T16:52:03.362Z,99.90
2023-05-12T16:54:33.581Z,99.90
2023-05-12T16:57:02.918Z,99.90
2023-05-12T16:59:32.390Z,99.90
2023-05-12T17:02:00.376Z,99.90
2023-05-12T17:04:28.107Z,99.90
2023-05-12T17:06:55.757Z,99.90
2023-05-12T17:09:23.368Z,99.90
2023-05-12T17:11:50.929Z,99.90
2023-05-12T17:14:19.477Z,99.90
2023-05-12T17:16:47.313Z,99.90
2023-05-12T17:19:15.771Z,99.90
2023-05-12T17:21:43.203Z,99.90
2023-05-12T17:24:10.951Z,99.90
2023-05-12T17:26:38.465Z,99.90
2023-05-12T17:29:06.018Z,99.90
2023-05-12T17:31:33.536Z,99.90
2023-05-12T17:34:01.121Z,99.90
2023-05-12T17:36:29.054Z,99.90
2023-05-12T17:38:56.912Z,99.90
2023-05-12T17:41:25.972Z,99.90
2023-05-12T17:43:54.434Z,99.90
2023-05-12T17:46:22.165Z,99.90
2023-05-12T17:48:49.664Z,99.90
2023-05-12T17:51:17.221Z,99.90
2023-05-12T17:53:44.776Z,99.90
2023-05-12T17:56:12.387Z,99.90
2023-05-12T17:58:39.993Z,99.90
2023-05-12T18:01:07.982Z,99.90
2023-05-12T18:03:36.740Z,99.90
2023-05-12T18:06:05.625Z,99.90
2023-05-12T18:08:33.224Z,99.90
2023-05-12T18:11:01.275Z,99.90
2023-05-12T18:13:28.796Z,99.90
2023-05-12T18:15:56.490Z,99.90
2023-05-12T18:18:24.137Z,99.90
2023-05-12T18:20:51.851Z,99.90
2023-05-12T18:23:19.426Z,99.90
2023-05-12T18:25:47.123Z,99.90
2023-05-12T18:28:15.048Z,99.90
2023-05-12T18:30:42.413Z,99.90
2023-05-12T18:33:10.116Z,99.90
2023-05-12T18:35:37.882Z,99.90
2023-05-12T18:38:05.714Z,99.90
2023-05-12T18:40:33.349Z,99.90
2023-05-12T18:43:00.989Z,99.90
2023-05-12T18:45:28.676Z,99.90
2023-05-12T18:47:56.241Z,99.90
2023-05-12T18:50:23.645Z,99.90
2023-05-12T18:52:51.314Z,99.90
2023-05-12T18:55:19.029Z,99.90
2023-05-12T18:57:46.697Z,99.90
2023-05-12T19:00:14.362Z,99.90
2023-05-12T19:02:42.444Z,99.90
2023-05-12T19:05:10.250Z,99.90
2023-05-12T19:07:37.849Z,99.90
2023-05-12T19:10:05.908Z,99.90
2023-05-12T19:12:33.338Z,99.90
2023-05-12T19:15:00.724Z,99.90
2023-05-12T19:17:28.328Z,99.90
2023-05-12T19:19:55.758Z,99.90
2023-05-12T19:22:24.843Z,99.90
2023-05-12T19:24:52.891Z,99.90
2023-05-12T19:27:20.582Z,99.90
2023-05-12T19:29:49.006Z,99.90
2023-05-12T19:32:16.715Z,99.90
2023-05-12T19:34:44.601Z,99.90
2023-05-12T19:37:12.128Z,99.90
2023-05-12T19:39:39.717Z,99.90
2023-05-12T19:42:07.289Z,99.90
2023-05-12T19:44:34.844Z,99.90
2023-05-12T19:47:04.818Z,99.90
2023-05-12T19:49:34.291Z,99.90
2023-05-12T19:52:03.463Z,99.90
2023-05-12T19:54:30.886Z,99.90
2023-05-12T19:56:58.529Z,99.90
2023-05-12T19:59:26.747Z,99.90
2023-05-12T20:01:54.325Z,99.90
2023-05-12T20:04:22.841Z,99.90
2023-05-12T20:06:51.450Z,99.90
2023-05-12T20:09:20.594Z,99.90
2023-05-12T20:11:48.956Z,99.90
2023-05-12T20:14:16.473Z,99.90
2023-05-12T20:16:44.148Z,99.90
2023-05-12T20:19:11.717Z,99.90
2023-05-12T20:21:41.129Z,99.90
2023-05-12T20:24:09.060Z,99.90
2023-05-12T20:26:36.858Z,99.90
2023-05-12T20:29:04.778Z,99.90
2023-05-12T20:31:32.564Z,99.90
2023-05-12T20:34:00.202Z,99.90
2023-05-12T20:36:27.742Z,99.90
2023-05-12T20:38:55.244Z,99.90
2023-05-12T20:41:22.754Z,99.90
2023-05-12T20:43:50.186Z,99.90
2023-05-12T20:46:17.968Z,99.90
2023-05-12T20:48:45.784Z,99.90
2023-05-12T20:51:13.616Z,99.90
2023-05-12T20:53:42.047Z,99.90
2023-05-12T20:56:10.474Z,99.90
2023-05-12T20:58:38.180Z,99.90
2023-05-12T21:01:05.712Z,99.90
2023-05-12T21:03:34.015Z,99.90
2023-05-12T21:06:02.175Z,99.90
2023-05-12T21:08:29.667Z,99.90
2023-05-12T21:10:58.920Z,99.90
2023-05-12T21:13:27.123Z,99.90
2023-05-12T21:15:54.553Z,99.90
2023-05-12T21:18:21.955Z,99.90
2023-05-12T21:20:49.586Z,99.90
2023-05-12T21:23:17.315Z,99.90
2023-05-12T21:25:44.977Z,99.90
2023-05-12T21:28:12.532Z,99.90
2023-05-12T21:30:39.962Z,99.90
2023-05-12T21:33:07.480Z,99.90
2023-05-12T21:35:35.083Z,99.90
2023-05-12T21:38:02.598Z,99.90
2023-05-12T21:40:30.168Z,99.90
2023-05-12T21:42:57.574Z,99.90
2023-05-12T21:45:25.295Z,99.90
2023-05-12T21:47:53.268Z,99.90
2023-05-12T21:50:21.747Z,99.90
2023-05-12T21:52:50.168Z,99.90
2023-05-12T21:55:17.766Z,99.90
2023-05-12T21:57:45.566Z,99.90
2023-05-12T22:00:14.804Z,99.90
2023-05-12T22:02:43.675Z,99.90
2023-05-12T22:05:11.355Z,99.90
2023-05-12T22:07:38.993Z,99.90
2023-05-12T22:10:07.128Z,99.90
2023-05-12T22:12:34.909Z,99.90
2023-05-12T22:15:02.737Z,99.90
2023-05-12T22:17:31.843Z,99.90
2023-05-12T22:19:59.767Z,99.90
2023-05-12T22:22:27.434Z,99.90
2023-05-12T22:24:57.305Z,99.90
2023-05-12T22:27:24.823Z,99.90
2023-05-12T22:29:52.627Z,99.90
2023-05-12T22:32:20.345Z,99.90
2023-05-12T22:34:47.914Z,99.90
2023-05-12T22:37:15.614Z,99.90
2023-05-12T22:39:43.254Z,99.90
2023-05-12T22:42:10.930Z,99.90
2023-05-12T22:44:38.633Z,99.90
2023-05-12T22:47:06.690Z,99.90
2023-05-12T22:49:34.240Z,99.90
2023-05-12T22:52:01.831Z,99.90
2023-05-12T22:54:29.844Z,99.90
2023-05-12T22:56:57.421Z,99.90
2023-05-12T22:59:24.961Z,99.90
2023-05-12T23:01:52.571Z,99.90
2023-05-12T23:04:20.524Z,99.90
2023-05-12T23:06:48.234Z,99.90
2023-05-12T23:09:16.286Z,99.90
2023-05-12T23:11:43.953Z,99.90
2023-05-12T23:14:11.652Z,99.90
2023-05-12T23:16:39.344Z,99.90
2023-05-12T23:19:07.095Z,99.90
2023-05-12T23:21:34.789Z,99.90
2023-05-12T23:24:02.365Z,99.90
2023-05-12T23:26:30.376Z,99.90
2023-05-12T23:28:57.983Z,99.90
2023-05-12T23:31:25.536Z,99.90
2023-05-12T23:33:53.192Z,99.90
2023-05-12T23:36:20.716Z,99.90
2023-05-12T23:38:52.802Z,99.90
2023-05-12T23:41:22.051Z,99.90
2023-05-12T23:43:49.908Z,99.90
2023-05-12T23:46:17.715Z,99.90
2023-05-12T23:48:45.401Z,99.90
2023-05-12T23:51:13.004Z,99.90
2023-05-12T23:53:40.616Z,99.90
2023-05-12T23:56:08.435Z,99.90
2023-05-12T23:58:36.232Z,99.90
